Flight Track Log - Related Links

Times and Time Zones

All times are in EST time to prevent confusion due to time zone crossing. See the N41NW flight status page for this flight to view local times or setup timezone preferences in your user account.

Time Position Orientation Groundspeed Altitude Reporting Facility
EST Latitude Longitude Course Direction KTS MPH feet Rate Location/Type
Wed 01:11:32 PM 35.8561 -78.8083 254° West 191 220 1,400  Level Washington Center
Wed 01:12:30 PM 35.8397 -78.8769 266° West 221 254 5,100 3,851 Climbing Washington Center
Wed 01:13:46 PM 35.8350 -78.9689 272° West 249 287 10,000 3,547 Climbing Washington Center
Wed 01:14:47 PM 35.8369 -79.0536 266° West 249 287 13,200 2,557 Climbing Washington Center
Wed 01:15:48 PM 35.8325 -79.1328 268° West 249 287 15,200 2,492 Climbing Washington Center
Wed 01:16:45 PM 35.8292 -79.2428 269° West 285 328 18,100 2,695 Climbing Washington Center
Wed 01:17:46 PM 35.8283 -79.3400 263° West 291 335 20,500 1,897 Climbing Washington Center
Wed 01:19:20 PM 35.8136 -79.4961 266° West 298 343 23,000 1,364 Climbing Atlanta Center
Wed 01:20:20 PM 35.8075 -79.6167 280° West 342 394 24,000 1,500 Climbing Atlanta Center
Wed 01:21:20 PM 35.8244 -79.7411 271° West 342 394 26,000 1,000 Climbing Atlanta Center
Wed 01:22:20 PM 35.8267 -79.8642 246° West 356 410 26,000 500 Level Atlanta Center
Wed 01:23:20 PM 35.7828 -79.9842 240° Southwest 366 421 27,000 1,600 Climbing Atlanta Center
Wed 01:24:20 PM 35.7339 -80.0889 239° Southwest 366 421 29,200 1,450 Climbing Atlanta Center
Wed 01:25:20 PM 35.6850 -80.1908 240° Southwest 355 409 29,900 1,100 Climbing Atlanta Center
Wed 01:26:20 PM 35.6342 -80.3006 242° Southwest 368 423 31,400 1,000 Climbing Atlanta Center
Wed 01:27:20 PM 35.5875 -80.4100 241° Southwest 368 423 31,900 700 Climbing Atlanta Center
Wed 01:28:20 PM 35.5383 -80.5192 242° Southwest 368 423 32,800 1,100 Climbing Atlanta Center
Wed 01:29:20 PM 35.4972 -80.6128 243° Southwest 362 417 34,100 1,100 Climbing Atlanta Center
Wed 01:30:20 PM 35.4522 -80.7194 242° Southwest 353 406 35,000 950 Climbing Atlanta Center
Wed 01:31:20 PM 35.4089 -80.8206 258° West 353 406 36,000 900 Climbing Atlanta Center
Wed 01:32:20 PM 35.3889 -80.9333 253° West 341 392 36,800 550 Climbing Atlanta Center
Wed 01:33:20 PM 35.3586 -81.0542 257° West 341 392 37,100 150 Climbing Atlanta Center
Wed 01:34:20 PM 35.3364 -81.1694 256° West 347 399 37,100 50 Level Atlanta Center
Wed 01:35:20 PM 35.3119 -81.2900 258° West 360 414 37,200 450 Climbing Atlanta Center
Wed 01:36:20 PM 35.2917 -81.4078 254° West 360 414 38,000 400 Climbing Atlanta Center
Wed 01:37:20 PM 35.2647 -81.5231 257° West 360 414 38,000  Level Atlanta Center
Wed 01:38:20 PM 35.2422 -81.6408 256° West 360 414 38,000  Level Atlanta Center
Wed 01:39:20 PM 35.2211 -81.7481 256° West 360 414 38,000  Level Atlanta Center
Wed 01:40:20 PM 35.1964 -81.8708 256° West 366 421 38,000  Level Atlanta Center
Wed 01:41:20 PM 35.1714 -81.9933 255° West 371 427 38,000  Level Atlanta Center
Wed 01:42:20 PM 35.1442 -82.1161 255° West 371 427 38,000  Level Atlanta Center
Wed 01:43:20 PM 35.1186 -82.2358 254° West 371 427 38,000  Level Atlanta Center
Wed 01:44:20 PM 35.0911 -82.3508 256° West 371 427 38,000  Level Atlanta Center
Wed 01:45:20 PM 35.0636 -82.4858 255° West 371 427 38,000  Level Atlanta Center
Wed 01:46:20 PM 35.0381 -82.6056 255° West 371 427 38,000  Level Atlanta Center
Wed 01:47:20 PM 35.0122 -82.7250 254° West 371 427 38,000  Level Atlanta Center
Wed 01:48:20 PM 34.9842 -82.8472 256° West 371 427 38,000  Level Atlanta Center
Wed 01:49:20 PM 34.9603 -82.9667 255° West 371 427 38,000 50 Level Atlanta Center
Wed 01:50:20 PM 34.9342 -83.0886 253° West 376 433 38,100 50 Climbing Atlanta Center
Wed 01:51:20 PM 34.9039 -83.2056 257° West 371 427 38,100 -50 Level Atlanta Center
Wed 01:52:20 PM 34.8817 -83.3272 254° West 371 427 38,000 -50 Descending Atlanta Center
Wed 01:53:20 PM 34.8531 -83.4464 254° West 378 435 38,000  Level Atlanta Center
Wed 01:54:20 PM 34.8264 -83.5631 253° West 372 428 38,000  Level Atlanta Center
Wed 01:55:20 PM 34.7975 -83.6797 256° West 367 422 38,000  Level Atlanta Center
Wed 01:56:20 PM 34.7750 -83.7883 255° West 360 414 38,000  Level Atlanta Center
Wed 01:57:20 PM 34.7481 -83.9072 255° West 373 429 38,000  Level Atlanta Center
Wed 01:58:20 PM 34.7208 -84.0311 254° West 378 435 38,000  Level Atlanta Center
Wed 01:59:20 PM 34.6936 -84.1475 255° West 378 435 38,000  Level Atlanta Center
Wed 02:00:20 PM 34.6686 -84.2636 254° West 372 428 38,000  Level Atlanta Center
Wed 02:01:20 PM 34.6411 -84.3822 254° West 367 422 38,000  Level Atlanta Center
Wed 02:02:20 PM 34.6136 -84.4981 255° West 367 422 38,000  Level Atlanta Center
Wed 02:03:20 PM 34.5881 -84.6167 254° West 367 422 38,000  Level Atlanta Center
Wed 02:04:20 PM 34.5603 -84.7350 254° West 367 422 38,000  Level Atlanta Center
Wed 02:05:20 PM 34.5283 -84.8683 255° West 367 422 38,000  Level Atlanta Center
Wed 02:06:20 PM 34.5022 -84.9864 254° West 367 422 38,000  Level Atlanta Center
Wed 02:07:20 PM 34.4742 -85.1072 250° West 367 422 38,000  Level Atlanta Center
Wed 02:08:20 PM 34.4419 -85.2150 254° West 374 430 38,000  Level Atlanta Center
Wed 02:09:20 PM 34.4136 -85.3356 256° West 379 436 38,000  Level Atlanta Center
Wed 02:10:20 PM 34.3850 -85.4711 254° West 379 436 38,000  Level Atlanta Center
Wed 02:11:20 PM 34.3564 -85.5939 254° West 379 436 38,000  Level Atlanta Center
Wed 02:12:20 PM 34.3275 -85.7139 253° West 372 428 38,000  Level Atlanta Center
Wed 02:13:20 PM 34.2967 -85.8392 250° West 383 441 38,000  Level Atlanta Center
Wed 02:14:20 PM 34.2658 -85.9417 255° West 378 435 38,000  Level Atlanta Center
Wed 02:15:20 PM 34.2389 -86.0642 251° West 378 435 38,000  Level Atlanta Center
Wed 02:16:20 PM 34.2056 -86.1839 253° West 378 435 38,000  Level Atlanta Center
Wed 02:17:20 PM 34.1742 -86.3061 254° West 378 435 38,000  Level Atlanta Center
Wed 02:18:20 PM 34.1447 -86.4283 253° West 378 435 38,000  Level Atlanta Center
Wed 02:19:20 PM 34.1131 -86.5503 254° West 378 435 38,000  Level Atlanta Center
Wed 02:20:20 PM 34.0833 -86.6747 252° West 378 435 38,000  Level Atlanta Center
Wed 02:21:20 PM 34.0514 -86.7942 253° West 378 435 38,000  Level Atlanta Center
Wed 02:22:52 PM 34.0017 -86.9847 251° West 384 442 38,000  Level Memphis Center
Wed 02:23:52 PM 33.9692 -87.1011 254° West 379 436 38,000  Level Memphis Center
Wed 02:24:52 PM 33.9353 -87.2403 253° West 385 443 38,000  Level Memphis Center
Wed 02:25:52 PM 33.9047 -87.3614 252° West 390 449 38,000  Level Memphis Center
Wed 02:26:52 PM 33.8703 -87.4878 254° West 390 449 38,000  Level Memphis Center
Wed 02:27:52 PM 33.8417 -87.6086 250° West 382 440 38,000  Level Memphis Center
Wed 02:28:52 PM 33.8086 -87.7197 252° West 382 440 38,000  Level Memphis Center
Wed 02:29:52 PM 33.7719 -87.8583 253° West 392 451 38,000  Level Memphis Center
Wed 02:30:52 PM 33.7408 -87.9842 251° West 392 451 38,000  Level Memphis Center
Wed 02:31:52 PM 33.7056 -88.1075 252° West 397 457 38,000  Level Memphis Center
Wed 02:32:52 PM 33.6725 -88.2331 251° West 397 457 38,000  Level Memphis Center
Wed 02:33:52 PM 33.6369 -88.3586 251° West 397 457 38,000  Level Memphis Center
Wed 02:34:52 PM 33.6014 -88.4842 252° West 402 463 38,000  Level Memphis Center
Wed 02:35:52 PM 33.5675 -88.6094 255° West 402 463 38,000  Level Memphis Center
Wed 02:36:52 PM 33.5381 -88.7397 251° West 402 463 38,000  Level Memphis Center
Wed 02:37:52 PM 33.5019 -88.8650 252° West 402 463 38,000  Level Memphis Center
Wed 02:38:52 PM 33.4661 -88.9950 252° West 402 463 38,000  Level Memphis Center
Wed 02:39:52 PM 33.4319 -89.1200 251° West 408 470 38,000  Level Memphis Center
Wed 02:40:52 PM 33.3956 -89.2475 251° West 408 470 38,000  Level Memphis Center
Wed 02:41:52 PM 33.3589 -89.3772 251° West 408 470 38,000  Level Memphis Center
Wed 02:42:52 PM 33.3222 -89.5044 252° West 408 470 38,000  Level Memphis Center
Wed 02:43:52 PM 33.2917 -89.6192 252° West 408 470 38,000  Level Memphis Center
Wed 02:44:52 PM 33.2569 -89.7436 251° West 408 470 38,000  Level Memphis Center
Wed 02:45:52 PM 33.2200 -89.8706 251° West 408 470 38,000  Level Memphis Center
Wed 02:46:52 PM 33.1828 -89.9997 251° West 408 470 38,000  Level Memphis Center
Wed 02:47:52 PM 33.1456 -90.1264 251° West 408 470 38,000  Level Memphis Center
Wed 02:48:52 PM 33.1081 -90.2531 252° West 408 470 38,000  Level Memphis Center
Wed 02:49:52 PM 33.0728 -90.3819 250° West 408 470 38,000  Level Memphis Center
Wed 02:50:52 PM 33.0350 -90.5083 251° West 408 470 38,000  Level Memphis Center
Wed 02:51:52 PM 32.9994 -90.6347 249° West 408 470 38,000  Level Memphis Center
Wed 02:52:52 PM 32.9614 -90.7558 251° West 408 470 38,000  Level Memphis Center
Wed 02:53:52 PM 32.9214 -90.8919 251° West 408 470 38,000  Level Memphis Center
Wed 02:54:52 PM 32.8853 -91.0153 250° West 408 470 38,000  Level Memphis Center
Wed 02:55:52 PM 32.8511 -91.1289 251° West 394 453 38,000  Level Memphis Center
Wed 02:56:52 PM 32.8192 -91.2397 252° West 379 436 38,000 31 Level Memphis Center
Wed 02:59:06 PM 32.7500 -91.4858 249° West 344 396 38,100 31 Climbing Fort Worth Center
Wed 03:00:06 PM 32.7136 -91.5992 250° West 356 410 38,100 -50 Level Fort Worth Center
Wed 03:01:06 PM 32.6772 -91.7175 249° West 368 423 38,000 50 Descending Fort Worth Center
Wed 03:02:06 PM 32.6406 -91.8283 251° West 380 437 38,200 950 Climbing Fort Worth Center
Wed 03:03:06 PM 32.6061 -91.9489 250° West 375 432 39,900 850 Climbing Fort Worth Center
Wed 03:04:06 PM 32.5731 -92.0544 250° West 362 417 39,900 50 Level Fort Worth Center
Wed 03:05:06 PM 32.5383 -92.1672 250° West 362 417 40,000 50 Climbing Fort Worth Center
Wed 03:06:06 PM 32.5033 -92.2828 250° West 362 417 40,000  Level Fort Worth Center
Wed 03:07:06 PM 32.4683 -92.3978 248° West 367 422 40,000  Level Fort Worth Center
Wed 03:08:06 PM 32.4347 -92.4983 250° West 372 428 40,000  Level Fort Worth Center
Wed 03:09:06 PM 32.3939 -92.6333 251° West 391 450 40,000  Level Fort Worth Center
Wed 03:10:06 PM 32.3589 -92.7506 249° West 398 458 40,000 50 Level Fort Worth Center
Wed 03:11:06 PM 32.3194 -92.8706 250° West 392 451 40,100  Climbing Fort Worth Center
Wed 03:12:06 PM 32.2839 -92.9856 250° West 392 451 40,000 -50 Descending Fort Worth Center
Wed 03:13:06 PM 32.2536 -93.0828 247° West 392 451 40,000  Level Fort Worth Center
Wed 03:14:06 PM 32.2097 -93.2025 250° West 385 443 40,000  Level Fort Worth Center
Wed 03:15:06 PM 32.1739 -93.3197 250° West 385 443 40,000  Level Fort Worth Center
Wed 03:16:06 PM 32.1325 -93.4539 250° West 399 459 40,000  Level Fort Worth Center
Wed 03:17:06 PM 32.0944 -93.5758 249° West 394 453 40,000  Level Fort Worth Center
Wed 03:18:06 PM 32.0561 -93.6925 249° West 394 453 40,000  Level Fort Worth Center
Wed 03:19:06 PM 32.0217 -93.7994 248° West 394 453 40,000  Level Fort Worth Center
Wed 03:20:06 PM 31.9831 -93.9133 250° West 394 453 40,000  Level Fort Worth Center
Wed 03:21:06 PM 31.9447 -94.0350 248° West 394 453 40,000  Level Fort Worth Center
Wed 03:22:06 PM 31.9039 -94.1539 249° West 394 453 40,000 50 Level Fort Worth Center
Wed 03:23:06 PM 31.8653 -94.2725 249° West 394 453 40,100 50 Climbing Fort Worth Center
Wed 03:24:06 PM 31.8264 -94.3914 250° West 394 453 40,100 -50 Level Fort Worth Center
Wed 03:25:06 PM 31.7894 -94.5075 248° West 394 453 40,000 -50 Descending Fort Worth Center
Wed 03:26:06 PM 31.7483 -94.6258 249° West 394 453 40,000  Level Fort Worth Center
Wed 03:27:06 PM 31.7092 -94.7444 249° West 394 453 40,000  Level Fort Worth Center
Wed 03:28:06 PM 31.6697 -94.8625 249° West 394 453 40,000  Level Fort Worth Center
Wed 03:29:06 PM 31.6303 -94.9808 248° West 394 453 40,000  Level Fort Worth Center
Wed 03:30:06 PM 31.5908 -95.0964 248° West 394 453 40,000  Level Fort Worth Center
Wed 03:31:06 PM 31.5492 -95.2144 247° West 394 453 40,000  Level Fort Worth Center
Wed 03:32:06 PM 31.5092 -95.3275 248° West 391 450 40,000  Level Fort Worth Center
Wed 03:33:06 PM 31.4672 -95.4478 247° West 386 444 40,000  Level Fort Worth Center
Wed 03:34:06 PM 31.4253 -95.5631 249° West 386 444 40,000  Level Fort Worth Center
Wed 03:35:38 PM 31.3631 -95.7569 248° West 383 441 40,000  Level Houston Center
Wed 03:36:38 PM 31.3219 -95.8742 249° West 389 448 40,000  Level Houston Center
Wed 03:37:38 PM 31.2828 -95.9917 247° West 389 448 40,000  Level Houston Center
Wed 03:38:38 PM 31.2414 -96.1064 247° West 389 448 40,000 -350 Level Houston Center
Wed 03:39:38 PM 31.1978 -96.2256 247° West 389 448 39,300 -1,550 Descending Houston Center
Wed 03:40:38 PM 31.1539 -96.3472 250° West 406 467 36,900 -2,900 Descending Houston Center
Wed 03:41:38 PM 31.1142 -96.4739 247° West 412 474 33,500 -3,600 Descending Houston Center
Wed 03:42:38 PM 31.0653 -96.6072 248° West 434 499 29,700 -3,450 Descending Houston Center
Wed 03:43:38 PM 31.0164 -96.7453 248° West 458 527 26,600 -2,900 Descending Houston Center
Wed 03:44:38 PM 30.9697 -96.8808 246° West 458 527 23,900 -3,300 Descending Houston Center
Wed 03:45:38 PM 30.9208 -97.0064 249° West 450 518 20,000 -3,350 Descending Houston Center
Wed 03:46:38 PM 30.8831 -97.1181 251° West 427 491 17,200 -3,300 Descending Houston Center
Wed 03:47:38 PM 30.8469 -97.2369 253° West 407 468 13,400 -3,400 Descending Houston Center
Wed 03:48:38 PM 30.8172 -97.3514 251° West 365 420 10,400 -3,000 Descending Houston Center
Wed 03:49:38 PM 30.7928 -97.4319 249° West 302 348 7,400 -2,800 Descending Houston Center
Wed 03:50:38 PM 30.7689 -97.5031 255° West 256 295 4,800 -1,850 Descending Houston Center
Wed 03:51:38 PM 30.7533 -97.5722 275° West 239 275 3,700 -900 Descending Houston Center
Wed 03:52:38 PM 30.7575 -97.6231 251° West 188 216 3,000 -750 Descending Houston Center
Wed 03:53:38 PM 30.7453 -97.6636 199° South 140 161 2,200 -850 Descending Houston Center
Wed 03:54:38 PM 30.7133 -97.6761 200° South 115 132 1,300 -650 Descending Houston Center
Wed 03:55:38 PM 30.6836 -97.6889 132° Southeast 122 140 900 -400 Descending Houston Center
Wed 04:02:53 PM 30.6667 -97.6667 132° Southeast  Level FlightAware Approximate

Login

Don't have an account? Register now (free) for customized features, flight alerts, and more!